sensor_id;sensor_type;location;lat;lon;timestamp;temperature;humidity
72380;SHT30;60354;47.798;12.472;2023-05-10T00:02:07;14.25;84.93
72380;SHT30;60354;47.798;12.472;2023-05-10T00:04:33;14.25;85.24
72380;SHT30;60354;47.798;12.472;2023-05-10T00:06:59;14.20;85.23
72380;SHT30;60354;47.798;12.472;2023-05-10T00:09:24;14.26;85.00
72380;SHT30;60354;47.798;12.472;2023-05-10T00:11:50;14.26;85.10
72380;SHT30;60354;47.798;12.472;2023-05-10T00:14:15;14.25;85.25
72380;SHT30;60354;47.798;12.472;2023-05-10T00:16:41;14.23;85.45
72380;SHT30;60354;47.798;12.472;2023-05-10T00:19:07;14.32;85.32
72380;SHT30;60354;47.798;12.472;2023-05-10T00:21:32;14.26;85.34
72380;SHT30;60354;47.798;12.472;2023-05-10T00:23:59;14.33;84.36
72380;SHT30;60354;47.798;12.472;2023-05-10T00:26:25;14.36;83.81
72380;SHT30;60354;47.798;12.472;2023-05-10T00:28:53;14.34;83.66
72380;SHT30;60354;47.798;12.472;2023-05-10T00:31:19;14.40;83.62
72380;SHT30;60354;47.798;12.472;2023-05-10T00:33:45;14.36;83.70
72380;SHT30;60354;47.798;12.472;2023-05-10T00:36:10;14.36;83.70
72380;SHT30;60354;47.798;12.472;2023-05-10T00:38:36;14.37;83.90
72380;SHT30;60354;47.798;12.472;2023-05-10T00:41:02;14.34;83.49
72380;SHT30;60354;47.798;12.472;2023-05-10T00:43:30;14.38;82.93
72380;SHT30;60354;47.798;12.472;2023-05-10T00:45:55;14.43;82.51
72380;SHT30;60354;47.798;12.472;2023-05-10T00:48:21;14.41;82.49
72380;SHT30;60354;47.798;12.472;2023-05-10T00:50:47;14.41;82.77
72380;SHT30;60354;47.798;12.472;2023-05-10T00:53:14;14.53;82.12
72380;SHT30;60354;47.798;12.472;2023-05-10T00:55:40;14.44;82.81
72380;SHT30;60354;47.798;12.472;2023-05-10T00:58:05;14.41;84.09
72380;SHT30;60354;47.798;12.472;2023-05-10T01:00:33;14.44;84.68
72380;SHT30;60354;47.798;12.472;2023-05-10T01:02:59;14.37;84.81
72380;SHT30;60354;47.798;12.472;2023-05-10T01:05:25;14.27;84.44
72380;SHT30;60354;47.798;12.472;2023-05-10T01:07:52;14.27;86.21
72380;SHT30;60354;47.798;12.472;2023-05-10T01:10:18;14.33;86.25
72380;SHT30;60354;47.798;12.472;2023-05-10T01:12:45;14.37;85.91
72380;SHT30;60354;47.798;12.472;2023-05-10T01:15:12;14.37;85.33
72380;SHT30;60354;47.798;12.472;2023-05-10T01:17:40;14.40;85.33
72380;SHT30;60354;47.798;12.472;2023-05-10T01:20:07;14.38;84.41
72380;SHT30;60354;47.798;12.472;2023-05-10T01:33:49;14.32;86.54
72380;SHT30;60354;47.798;12.472;2023-05-10T01:38:49;14.25;88.85
72380;SHT30;60354;47.798;12.472;2023-05-10T01:41:36;14.33;88.07
72380;SHT30;60354;47.798;12.472;2023-05-10T01:44:12;14.36;88.30
72380;SHT30;60354;47.798;12.472;2023-05-10T01:46:42;14.22;89.00
72380;SHT30;60354;47.798;12.472;2023-05-10T01:49:25;14.16;89.14
72380;SHT30;60354;47.798;12.472;2023-05-10T01:51:54;13.98;90.56
72380;SHT30;60354;47.798;12.472;2023-05-10T01:54:24;13.89;88.58
72380;SHT30;60354;47.798;12.472;2023-05-10T01:56:57;13.98;87.25
72380;SHT30;60354;47.798;12.472;2023-05-10T01:59:28;13.95;87.50
72380;SHT30;60354;47.798;12.472;2023-05-10T02:01:57;13.89;88.45
72380;SHT30;60354;47.798;12.472;2023-05-10T02:04:24;13.94;89.03
72380;SHT30;60354;47.798;12.472;2023-05-10T02:06:52;14.01;89.27
72380;SHT30;60354;47.798;12.472;2023-05-10T02:09:20;14.06;88.98
72380;SHT30;60354;47.798;12.472;2023-05-10T02:11:47;13.95;87.59
72380;SHT30;60354;47.798;12.472;2023-05-10T02:14:15;14.01;88.37
72380;SHT30;60354;47.798;12.472;2023-05-10T02:16:42;14.02;89.77
72380;SHT30;60354;47.798;12.472;2023-05-10T02:19:09;13.99;88.91
72380;SHT30;60354;47.798;12.472;2023-05-10T02:21:35;14.02;88.86
72380;SHT30;60354;47.798;12.472;2023-05-10T02:24:03;14.12;89.17
72380;SHT30;60354;47.798;12.472;2023-05-10T02:26:30;14.12;89.29
72380;SHT30;60354;47.798;12.472;2023-05-10T02:28:57;14.01;89.22
72380;SHT30;60354;47.798;12.472;2023-05-10T02:31:23;13.98;89.11
72380;SHT30;60354;47.798;12.472;2023-05-10T02:33:50;13.83;88.99
72380;SHT30;60354;47.798;12.472;2023-05-10T02:36:17;13.79;89.81
72380;SHT30;60354;47.798;12.472;2023-05-10T02:38:45;13.81;90.24
72380;SHT30;60354;47.798;12.472;2023-05-10T02:41:12;13.79;90.52
72380;SHT30;60354;47.798;12.472;2023-05-10T02:43:39;13.85;90.02
72380;SHT30;60354;47.798;12.472;2023-05-10T02:46:06;13.88;90.26
72380;SHT30;60354;47.798;12.472;2023-05-10T02:48:31;13.95;90.24
72380;SHT30;60354;47.798;12.472;2023-05-10T02:51:02;13.86;90.55
72380;SHT30;60354;47.798;12.472;2023-05-10T02:53:34;13.81;90.57
72380;SHT30;60354;47.798;12.472;2023-05-10T02:56:05;13.76;90.95
72380;SHT30;60354;47.798;12.472;2023-05-10T02:58:32;13.78;90.79
72380;SHT30;60354;47.798;12.472;2023-05-10T03:00:59;13.75;91.38
72380;SHT30;60354;47.798;12.472;2023-05-10T03:03:25;13.72;91.37
72380;SHT30;60354;47.798;12.472;2023-05-10T03:05:50;13.79;91.38
72380;SHT30;60354;47.798;12.472;2023-05-10T03:08:16;13.75;91.02
72380;SHT30;60354;47.798;12.472;2023-05-10T03:10:50;13.74;90.80
72380;SHT30;60354;47.798;12.472;2023-05-10T03:13:44;13.75;91.14
72380;SHT30;60354;47.798;12.472;2023-05-10T03:16:22;13.68;91.36
72380;SHT30;60354;47.798;12.472;2023-05-10T03:19:16;13.64;90.68
72380;SHT30;60354;47.798;12.472;2023-05-10T03:21:47;13.66;91.13
72380;SHT30;60354;47.798;12.472;2023-05-10T03:24:15;13.74;91.02
72380;SHT30;60354;47.798;12.472;2023-05-10T03:26:44;13.72;90.81
72380;SHT30;60354;47.798;12.472;2023-05-10T03:29:15;13.75;90.83
72380;SHT30;60354;47.798;12.472;2023-05-10T03:31:41;13.72;90.89
72380;SHT30;60354;47.798;12.472;2023-05-10T03:34:07;13.74;90.93
72380;SHT30;60354;47.798;12.472;2023-05-10T03:36:32;13.69;91.20
72380;SHT30;60354;47.798;12.472;2023-05-10T03:38:59;13.69;91.27
72380;SHT30;60354;47.798;12.472;2023-05-10T03:41:25;13.69;91.29
72380;SHT30;60354;47.798;12.472;2023-05-10T03:43:51;13.71;91.28
72380;SHT30;60354;47.798;12.472;2023-05-10T03:46:17;13.68;91.81
72380;SHT30;60354;47.798;12.472;2023-05-10T03:48:43;13.68;91.59
72380;SHT30;60354;47.798;12.472;2023-05-10T03:51:08;13.59;91.53
72380;SHT30;60354;47.798;12.472;2023-05-10T03:53:34;13.51;91.26
72380;SHT30;60354;47.798;12.472;2023-05-10T03:55:59;13.55;91.42
72380;SHT30;60354;47.798;12.472;2023-05-10T03:58:25;13.55;91.56
72380;SHT30;60354;47.798;12.472;2023-05-10T04:00:51;13.50;91.10
72380;SHT30;60354;47.798;12.472;2023-05-10T04:03:17;13.53;90.87
72380;SHT30;60354;47.798;12.472;2023-05-10T04:05:42;13.41;91.66
72380;SHT30;60354;47.798;12.472;2023-05-10T04:08:08;13.34;91.51
72380;SHT30;60354;47.798;12.472;2023-05-10T04:10:34;13.35;91.44
72380;SHT30;60354;47.798;12.472;2023-05-10T04:12:59;13.31;90.98
72380;SHT30;60354;47.798;12.472;2023-05-10T04:15:25;13.34;90.26
72380;SHT30;60354;47.798;12.472;2023-05-10T04:17:50;13.28;90.76
72380;SHT30;60354;47.798;12.472;2023-05-10T04:20:16;13.37;90.70
72380;SHT30;60354;47.798;12.472;2023-05-10T04:22:41;13.31;90.70
72380;SHT30;60354;47.798;12.472;2023-05-10T04:25:08;13.30;90.93
72380;SHT30;60354;47.798;12.472;2023-05-10T04:27:33;13.24;91.60
72380;SHT30;60354;47.798;12.472;2023-05-10T04:29:59;13.16;91.87
72380;SHT30;60354;47.798;12.472;2023-05-10T04:32:24;13.20;91.78
72380;SHT30;60354;47.798;12.472;2023-05-10T04:34:50;13.24;91.62
72380;SHT30;60354;47.798;12.472;2023-05-10T04:37:18;13.28;91.86
72380;SHT30;60354;47.798;12.472;2023-05-10T04:39:44;13.28;91.47
72380;SHT30;60354;47.798;12.472;2023-05-10T04:42:09;13.26;91.93
72380;SHT30;60354;47.798;12.472;2023-05-10T04:44:35;13.26;91.79
72380;SHT30;60354;47.798;12.472;2023-05-10T04:47:01;13.31;92.24
72380;SHT30;60354;47.798;12.472;2023-05-10T04:49:27;13.30;91.96
72380;SHT30;60354;47.798;12.472;2023-05-10T04:51:53;13.34;91.84
72380;SHT30;60354;47.798;12.472;2023-05-10T04:54:19;13.43;91.86
72380;SHT30;60354;47.798;12.472;2023-05-10T04:56:44;13.48;91.89
72380;SHT30;60354;47.798;12.472;2023-05-10T04:59:10;13.51;91.67
72380;SHT30;60354;47.798;12.472;2023-05-10T05:01:35;13.54;91.48
72380;SHT30;60354;47.798;12.472;2023-05-10T05:04:01;13.57;91.36
72380;SHT30;60354;47.798;12.472;2023-05-10T05:06:26;13.53;89.53
72380;SHT30;60354;47.798;12.472;2023-05-10T05:08:52;13.51;91.07
72380;SHT30;60354;47.798;12.472;2023-05-10T05:11:18;13.48;91.26
72380;SHT30;60354;47.798;12.472;2023-05-10T05:13:43;13.48;91.52
72380;SHT30;60354;47.798;12.472;2023-05-10T05:16:09;13.54;91.54
72380;SHT30;60354;47.798;12.472;2023-05-10T05:18:36;13.50;90.77
72380;SHT30;60354;47.798;12.472;2023-05-10T05:21:01;13.51;91.04
72380;SHT30;60354;47.798;12.472;2023-05-10T05:23:27;13.54;90.89
72380;SHT30;60354;47.798;12.472;2023-05-10T05:25:53;13.54;91.50
72380;SHT30;60354;47.798;12.472;2023-05-10T05:28:21;13.50;91.69
72380;SHT30;60354;47.798;12.472;2023-05-10T05:30:47;13.53;92.03
72380;SHT30;60354;47.798;12.472;2023-05-10T05:33:15;13.55;91.96
72380;SHT30;60354;47.798;12.472;2023-05-10T05:35:41;13.57;92.57
72380;SHT30;60354;47.798;12.472;2023-05-10T05:38:09;13.58;93.06
72380;SHT30;60354;47.798;12.472;2023-05-10T05:40:35;13.59;93.29
72380;SHT30;60354;47.798;12.472;2023-05-10T05:43:01;13.69;93.04
72380;SHT30;60354;47.798;12.472;2023-05-10T05:45:26;13.69;92.75
72380;SHT30;60354;47.798;12.472;2023-05-10T05:47:52;13.68;92.07
72380;SHT30;60354;47.798;12.472;2023-05-10T05:50:17;13.71;91.65
72380;SHT30;60354;47.798;12.472;2023-05-10T05:52:43;13.76;91.54
72380;SHT30;60354;47.798;12.472;2023-05-10T05:55:08;13.71;90.78
72380;SHT30;60354;47.798;12.472;2023-05-10T05:57:34;13.61;90.34
72380;SHT30;60354;47.798;12.472;2023-05-10T05:59:59;13.62;89.07
72380;SHT30;60354;47.798;12.472;2023-05-10T06:02:25;13.66;89.12
72380;SHT30;60354;47.798;12.472;2023-05-10T06:04:50;13.59;90.10
72380;SHT30;60354;47.798;12.472;2023-05-10T06:07:16;13.54;90.84
72380;SHT30;60354;47.798;12.472;2023-05-10T06:09:41;13.45;90.39
72380;SHT30;60354;47.798;12.472;2023-05-10T06:12:07;13.40;90.18
72380;SHT30;60354;47.798;12.472;2023-05-10T06:14:32;13.38;90.75
72380;SHT30;60354;47.798;12.472;2023-05-10T06:16:58;13.37;90.89
72380;SHT30;60354;47.798;12.472;2023-05-10T06:19:24;13.38;90.92
72380;SHT30;60354;47.798;12.472;2023-05-10T06:21:51;13.14;90.99
72380;SHT30;60354;47.798;12.472;2023-05-10T06:24:17;13.13;91.98
72380;SHT30;60354;47.798;12.472;2023-05-10T06:26:42;13.10;92.19
72380;SHT30;60354;47.798;12.472;2023-05-10T06:29:07;13.10;92.14
72380;SHT30;60354;47.798;12.472;2023-05-10T06:31:33;13.23;92.34
72380;SHT30;60354;47.798;12.472;2023-05-10T06:33:59;13.27;92.43
72380;SHT30;60354;47.798;12.472;2023-05-10T06:36:24;13.30;92.37
72380;SHT30;60354;47.798;12.472;2023-05-10T06:38:51;13.31;92.43
72380;SHT30;60354;47.798;12.472;2023-05-10T06:41:17;13.33;91.47
72380;SHT30;60354;47.798;12.472;2023-05-10T06:43:42;13.24;91.58
72380;SHT30;60354;47.798;12.472;2023-05-10T06:46:08;13.34;90.44
72380;SHT30;60354;47.798;12.472;2023-05-10T06:48:34;13.40;89.82
72380;SHT30;60354;47.798;12.472;2023-05-10T06:50:59;13.41;90.35
72380;SHT30;60354;47.798;12.472;2023-05-10T06:53:25;13.37;88.61
72380;SHT30;60354;47.798;12.472;2023-05-10T06:55:50;13.34;89.01
72380;SHT30;60354;47.798;12.472;2023-05-10T06:58:16;13.34;89.43
72380;SHT30;60354;47.798;12.472;2023-05-10T07:00:41;13.38;89.98
72380;SHT30;60354;47.798;12.472;2023-05-10T07:03:09;13.40;89.43
72380;SHT30;60354;47.798;12.472;2023-05-10T07:05:35;13.37;88.97
72380;SHT30;60354;47.798;12.472;2023-05-10T07:08:01;13.31;89.88
72380;SHT30;60354;47.798;12.472;2023-05-10T07:10:27;13.31;89.46
72380;SHT30;60354;47.798;12.472;2023-05-10T07:12:52;13.31;89.66
72380;SHT30;60354;47.798;12.472;2023-05-10T07:15:18;13.24;89.99
72380;SHT30;60354;47.798;12.472;2023-05-10T07:17:43;13.07;90.55
72380;SHT30;60354;47.798;12.472;2023-05-10T07:20:09;13.11;91.33
72380;SHT30;60354;47.798;12.472;2023-05-10T07:22:34;13.04;91.47
72380;SHT30;60354;47.798;12.472;2023-05-10T07:25:00;13.17;91.20
72380;SHT30;60354;47.798;12.472;2023-05-10T07:27:25;13.17;91.50
72380;SHT30;60354;47.798;12.472;2023-05-10T07:29:51;13.38;89.82
72380;SHT30;60354;47.798;12.472;2023-05-10T07:32:16;13.50;89.03
72380;SHT30;60354;47.798;12.472;2023-05-10T07:34:41;13.48;89.70
72380;SHT30;60354;47.798;12.472;2023-05-10T07:37:07;13.43;90.38
72380;SHT30;60354;47.798;12.472;2023-05-10T07:39:32;13.13;90.44
72380;SHT30;60354;47.798;12.472;2023-05-10T07:41:58;12.75;90.46
72380;SHT30;60354;47.798;12.472;2023-05-10T07:44:23;12.53;90.98
72380;SHT30;60354;47.798;12.472;2023-05-10T07:46:49;12.41;91.78
72380;SHT30;60354;47.798;12.472;2023-05-10T07:49:15;12.28;92.25
72380;SHT30;60354;47.798;12.472;2023-05-10T07:51:40;12.14;92.75
72380;SHT30;60354;47.798;12.472;2023-05-10T07:54:07;12.20;92.23
72380;SHT30;60354;47.798;12.472;2023-05-10T07:56:33;12.13;92.77
72380;SHT30;60354;47.798;12.472;2023-05-10T07:58:59;12.31;93.19
72380;SHT30;60354;47.798;12.472;2023-05-10T08:01:26;12.38;92.38
72380;SHT30;60354;47.798;12.472;2023-05-10T08:03:52;12.56;92.43
72380;SHT30;60354;47.798;12.472;2023-05-10T08:06:19;12.69;92.40
72380;SHT30;60354;47.798;12.472;2023-05-10T08:08:48;12.83;92.79
72380;SHT30;60354;47.798;12.472;2023-05-10T08:11:22;12.76;91.86
72380;SHT30;60354;47.798;12.472;2023-05-10T08:13:49;12.89;92.69
72380;SHT30;60354;47.798;12.472;2023-05-10T08:16:15;12.80;91.67
72380;SHT30;60354;47.798;12.472;2023-05-10T08:18:43;12.93;91.85
72380;SHT30;60354;47.798;12.472;2023-05-10T08:21:09;13.03;91.51
72380;SHT30;60354;47.798;12.472;2023-05-10T08:23:36;13.07;90.04
72380;SHT30;60354;47.798;12.472;2023-05-10T08:26:02;13.17;90.63
72380;SHT30;60354;47.798;12.472;2023-05-10T08:28:27;13.30;91.92
72380;SHT30;60354;47.798;12.472;2023-05-10T08:30:53;13.31;90.58
72380;SHT30;60354;47.798;12.472;2023-05-10T08:33:18;13.45;91.64
72380;SHT30;60354;47.798;12.472;2023-05-10T08:35:44;13.53;91.60
72380;SHT30;60354;47.798;12.472;2023-05-10T08:38:10;13.61;90.30
72380;SHT30;60354;47.798;12.472;2023-05-10T08:40:36;13.61;92.04
72380;SHT30;60354;47.798;12.472;2023-05-10T08:43:07;13.69;91.56
72380;SHT30;60354;47.798;12.472;2023-05-10T08:45:37;13.66;90.46
72380;SHT30;60354;47.798;12.472;2023-05-10T08:48:05;13.48;90.83
72380;SHT30;60354;47.798;12.472;2023-05-10T08:50:31;13.58;91.66
72380;SHT30;60354;47.798;12.472;2023-05-10T08:52:59;13.58;91.18
72380;SHT30;60354;47.798;12.472;2023-05-10T08:55:26;13.50;90.53
72380;SHT30;60354;47.798;12.472;2023-05-10T08:57:52;13.59;90.59
72380;SHT30;60354;47.798;12.472;2023-05-10T09:00:18;13.62;89.95
72380;SHT30;60354;47.798;12.472;2023-05-10T09:02:45;13.81;90.04
72380;SHT30;60354;47.798;12.472;2023-05-10T09:05:13;14.02;89.52
72380;SHT30;60354;47.798;12.472;2023-05-10T09:07:41;13.94;85.73
72380;SHT30;60354;47.798;12.472;2023-05-10T09:10:08;14.05;88.49
72380;SHT30;60354;47.798;12.472;2023-05-10T09:12:34;14.10;87.19
72380;SHT30;60354;47.798;12.472;2023-05-10T09:15:00;14.10;87.86
72380;SHT30;60354;47.798;12.472;2023-05-10T09:17:27;14.06;88.50
72380;SHT30;60354;47.798;12.472;2023-05-10T09:20:00;14.19;89.19
72380;SHT30;60354;47.798;12.472;2023-05-10T09:22:26;14.40;88.83
72380;SHT30;60354;47.798;12.472;2023-05-10T09:25:09;14.50;86.93
72380;SHT30;60354;47.798;12.472;2023-05-10T09:27:37;14.56;86.65
72380;SHT30;60354;47.798;12.472;2023-05-10T09:30:04;14.46;85.30
72380;SHT30;60354;47.798;12.472;2023-05-10T09:32:41;14.53;87.01
72380;SHT30;60354;47.798;12.472;2023-05-10T09:35:07;14.30;85.37
72380;SHT30;60354;47.798;12.472;2023-05-10T09:37:33;14.38;86.43
72380;SHT30;60354;47.798;12.472;2023-05-10T09:39:59;14.25;87.32
72380;SHT30;60354;47.798;12.472;2023-05-10T09:42:24;14.41;90.63
72380;SHT30;60354;47.798;12.472;2023-05-10T09:44:50;14.51;88.87
72380;SHT30;60354;47.798;12.472;2023-05-10T09:47:19;14.40;85.80
72380;SHT30;60354;47.798;12.472;2023-05-10T09:49:49;14.50;88.11
72380;SHT30;60354;47.798;12.472;2023-05-10T09:52:15;14.17;87.61
72380;SHT30;60354;47.798;12.472;2023-05-10T09:54:47;14.27;88.45
72380;SHT30;60354;47.798;12.472;2023-05-10T09:57:21;14.40;87.44
72380;SHT30;60354;47.798;12.472;2023-05-10T09:59:47;14.47;87.77
72380;SHT30;60354;47.798;12.472;2023-05-10T10:02:13;14.70;88.29
72380;SHT30;60354;47.798;12.472;2023-05-10T10:04:40;14.73;85.57
72380;SHT30;60354;47.798;12.472;2023-05-10T10:07:06;14.71;84.92
72380;SHT30;60354;47.798;12.472;2023-05-10T10:09:33;14.88;87.32
72380;SHT30;60354;47.798;12.472;2023-05-10T10:11:59;14.83;85.86
72380;SHT30;60354;47.798;12.472;2023-05-10T10:14:25;15.02;86.55
72380;SHT30;60354;47.798;12.472;2023-05-10T10:16:53;14.77;83.26
72380;SHT30;60354;47.798;12.472;2023-05-10T10:19:19;14.85;84.69
72380;SHT30;60354;47.798;12.472;2023-05-10T10:21:46;14.99;85.97
72380;SHT30;60354;47.798;12.472;2023-05-10T10:24:12;15.19;86.08
72380;SHT30;60354;47.798;12.472;2023-05-10T10:26:38;15.26;84.68
72380;SHT30;60354;47.798;12.472;2023-05-10T10:29:26;15.24;82.57
72380;SHT30;60354;47.798;12.472;2023-05-10T10:32:22;15.25;85.90
72380;SHT30;60354;47.798;12.472;2023-05-10T10:34:49;15.15;81.59
72380;SHT30;60354;47.798;12.472;2023-05-10T10:37:14;15.21;83.46
72380;SHT30;60354;47.798;12.472;2023-05-10T10:39:40;15.08;85.43
72380;SHT30;60354;47.798;12.472;2023-05-10T10:42:06;14.99;87.86
72380;SHT30;60354;47.798;12.472;2023-05-10T10:50:01;15.25;85.32
72380;SHT30;60354;47.798;12.472;2023-05-10T10:52:37;15.32;86.15
72380;SHT30;60354;47.798;12.472;2023-05-10T10:57:33;15.21;85.78
72380;SHT30;60354;47.798;12.472;2023-05-10T11:00:38;15.22;87.40
72380;SHT30;60354;47.798;12.472;2023-05-10T11:03:12;15.32;85.51
72380;SHT30;60354;47.798;12.472;2023-05-10T11:05:50;15.32;84.54
72380;SHT30;60354;47.798;12.472;2023-05-10T11:08:28;15.38;84.84
72380;SHT30;60354;47.798;12.472;2023-05-10T11:13:45;15.47;85.17
72380;SHT30;60354;47.798;12.472;2023-05-10T11:19:06;15.42;82.04
72380;SHT30;60354;47.798;12.472;2023-05-10T11:21:34;15.46;80.87
72380;SHT30;60354;47.798;12.472;2023-05-10T11:24:00;15.42;82.45
72380;SHT30;60354;47.798;12.472;2023-05-10T11:26:31;15.28;83.20
72380;SHT30;60354;47.798;12.472;2023-05-10T11:28:57;15.12;83.34
72380;SHT30;60354;47.798;12.472;2023-05-10T11:31:26;15.14;85.23
72380;SHT30;60354;47.798;12.472;2023-05-10T11:33:56;15.21;84.79
72380;SHT30;60354;47.798;12.472;2023-05-10T11:36:32;15.19;84.52
72380;SHT30;60354;47.798;12.472;2023-05-10T11:38:57;15.16;85.04
72380;SHT30;60354;47.798;12.472;2023-05-10T11:41:24;15.26;85.06
72380;SHT30;60354;47.798;12.472;2023-05-10T11:43:52;15.39;85.19
72380;SHT30;60354;47.798;12.472;2023-05-10T11:46:23;15.45;84.21
72380;SHT30;60354;47.798;12.472;2023-05-10T11:48:51;15.35;85.54
72380;SHT30;60354;47.798;12.472;2023-05-10T11:51:21;15.26;85.49
72380;SHT30;60354;47.798;12.472;2023-05-10T11:53:47;15.21;84.41
72380;SHT30;60354;47.798;12.472;2023-05-10T11:56:14;15.07;83.54
72380;SHT30;60354;47.798;12.472;2023-05-10T11:58:39;15.21;84.56
72380;SHT30;60354;47.798;12.472;2023-05-10T12:01:07;15.12;84.83
72380;SHT30;60354;47.798;12.472;2023-05-10T12:03:33;15.28;85.62
72380;SHT30;60354;47.798;12.472;2023-05-10T12:06:00;14.97;87.09
72380;SHT30;60354;47.798;12.472;2023-05-10T12:08:27;15.07;86.59
72380;SHT30;60354;47.798;12.472;2023-05-10T12:11:04;15.09;84.73
72380;SHT30;60354;47.798;12.472;2023-05-10T12:13:30;14.98;88.12
72380;SHT30;60354;47.798;12.472;2023-05-10T12:15:59;15.04;84.63
72380;SHT30;60354;47.798;12.472;2023-05-10T12:18:25;15.16;87.03
72380;SHT30;60354;47.798;12.472;2023-05-10T12:20:54;15.21;86.57
72380;SHT30;60354;47.798;12.472;2023-05-10T12:23:20;15.15;85.42
72380;SHT30;60354;47.798;12.472;2023-05-10T12:25:46;15.32;86.32
72380;SHT30;60354;47.798;12.472;2023-05-10T12:28:11;15.38;86.11
72380;SHT30;60354;47.798;12.472;2023-05-10T12:30:37;15.38;86.38
72380;SHT30;60354;47.798;12.472;2023-05-10T12:33:12;15.50;87.11
72380;SHT30;60354;47.798;12.472;2023-05-10T12:35:50;15.67;85.51
72380;SHT30;60354;47.798;12.472;2023-05-10T12:38:35;15.62;84.44
72380;SHT30;60354;47.798;12.472;2023-05-10T12:41:04;15.62;86.03
72380;SHT30;60354;47.798;12.472;2023-05-10T12:43:31;15.65;84.93
72380;SHT30;60354;47.798;12.472;2023-05-10T12:45:57;15.76;84.04
72380;SHT30;60354;47.798;12.472;2023-05-10T12:48:22;15.79;84.99
72380;SHT30;60354;47.798;12.472;2023-05-10T12:50:48;15.73;83.18
72380;SHT30;60354;47.798;12.472;2023-05-10T12:53:14;15.74;84.49
72380;SHT30;60354;47.798;12.472;2023-05-10T12:55:43;15.56;86.03
72380;SHT30;60354;47.798;12.472;2023-05-10T12:58:09;15.49;85.67
72380;SHT30;60354;47.798;12.472;2023-05-10T13:00:35;15.52;85.27
72380;SHT30;60354;47.798;12.472;2023-05-10T13:03:00;15.28;86.83
72380;SHT30;60354;47.798;12.472;2023-05-10T13:05:26;14.97;88.31
72380;SHT30;60354;47.798;12.472;2023-05-10T13:07:51;14.87;86.81
72380;SHT30;60354;47.798;12.472;2023-05-10T13:10:17;14.76;87.62
72380;SHT30;60354;47.798;12.472;2023-05-10T13:12:42;14.77;86.71
72380;SHT30;60354;47.798;12.472;2023-05-10T13:15:08;14.78;85.89
72380;SHT30;60354;47.798;12.472;2023-05-10T13:17:33;14.80;83.72
72380;SHT30;60354;47.798;12.472;2023-05-10T13:19:59;14.81;85.07
72380;SHT30;60354;47.798;12.472;2023-05-10T13:22:24;14.77;85.68
72380;SHT30;60354;47.798;12.472;2023-05-10T13:24:50;14.66;87.02
72380;SHT30;60354;47.798;12.472;2023-05-10T13:27:15;14.67;86.08
72380;SHT30;60354;47.798;12.472;2023-05-10T13:29:41;14.46;87.97
72380;SHT30;60354;47.798;12.472;2023-05-10T13:32:06;14.37;87.02
72380;SHT30;60354;47.798;12.472;2023-05-10T13:34:32;14.26;88.21
72380;SHT30;60354;47.798;12.472;2023-05-10T13:36:57;14.25;88.40
72380;SHT30;60354;47.798;12.472;2023-05-10T13:39:23;14.19;88.57
72380;SHT30;60354;47.798;12.472;2023-05-10T13:41:48;14.16;87.18
72380;SHT30;60354;47.798;12.472;2023-05-10T13:44:14;14.01;87.83
72380;SHT30;60354;47.798;12.472;2023-05-10T13:46:41;13.89;88.66
72380;SHT30;60354;47.798;12.472;2023-05-10T13:49:08;13.76;87.61
72380;SHT30;60354;47.798;12.472;2023-05-10T13:51:34;13.83;89.38
72380;SHT30;60354;47.798;12.472;2023-05-10T13:54:04;13.71;89.14
72380;SHT30;60354;47.798;12.472;2023-05-10T13:56:29;13.82;90.06
72380;SHT30;60354;47.798;12.472;2023-05-10T13:58:56;13.94;89.00
72380;SHT30;60354;47.798;12.472;2023-05-10T14:01:22;13.94;88.96
72380;SHT30;60354;47.798;12.472;2023-05-10T14:03:48;14.01;89.60
72380;SHT30;60354;47.798;12.472;2023-05-10T14:06:13;13.96;89.41
72380;SHT30;60354;47.798;12.472;2023-05-10T14:08:39;13.99;88.90
72380;SHT30;60354;47.798;12.472;2023-05-10T14:11:05;14.34;86.74
72380;SHT30;60354;47.798;12.472;2023-05-10T14:13:30;14.51;86.92
72380;SHT30;60354;47.798;12.472;2023-05-10T14:15:56;14.51;87.12
72380;SHT30;60354;47.798;12.472;2023-05-10T14:18:22;14.34;87.33
72380;SHT30;60354;47.798;12.472;2023-05-10T14:20:47;14.19;87.97
72380;SHT30;60354;47.798;12.472;2023-05-10T14:23:13;14.23;89.13
72380;SHT30;60354;47.798;12.472;2023-05-10T14:25:41;14.22;88.32
72380;SHT30;60354;47.798;12.472;2023-05-10T14:28:07;14.12;88.84
72380;SHT30;60354;47.798;12.472;2023-05-10T14:30:32;14.16;90.08
72380;SHT30;60354;47.798;12.472;2023-05-10T14:33:00;14.04;88.86
72380;SHT30;60354;47.798;12.472;2023-05-10T14:35:27;13.95;89.12
72380;SHT30;60354;47.798;12.472;2023-05-10T14:37:52;14.05;89.12
72380;SHT30;60354;47.798;12.472;2023-05-10T14:40:18;14.05;88.44
72380;SHT30;60354;47.798;12.472;2023-05-10T14:42:44;13.98;89.09
72380;SHT30;60354;47.798;12.472;2023-05-10T14:45:10;14.06;90.11
72380;SHT30;60354;47.798;12.472;2023-05-10T14:47:36;14.17;89.35
72380;SHT30;60354;47.798;12.472;2023-05-10T14:50:01;14.05;89.58
72380;SHT30;60354;47.798;12.472;2023-05-10T14:52:27;14.12;87.96
72380;SHT30;60354;47.798;12.472;2023-05-10T14:54:52;14.20;87.62
72380;SHT30;60354;47.798;12.472;2023-05-10T14:57:18;14.37;87.60
72380;SHT30;60354;47.798;12.472;2023-05-10T14:59:44;14.25;91.26
72380;SHT30;60354;47.798;12.472;2023-05-10T15:02:09;14.22;90.05
72380;SHT30;60354;47.798;12.472;2023-05-10T15:04:35;14.32;88.85
72380;SHT30;60354;47.798;12.472;2023-05-10T15:07:01;14.29;87.67
72380;SHT30;60354;47.798;12.472;2023-05-10T15:09:26;14.02;90.20
72380;SHT30;60354;47.798;12.472;2023-05-10T15:11:53;13.99;90.70
72380;SHT30;60354;47.798;12.472;2023-05-10T15:14:18;14.08;91.21
72380;SHT30;60354;47.798;12.472;2023-05-10T15:16:44;14.17;90.27
72380;SHT30;60354;47.798;12.472;2023-05-10T15:19:09;14.23;88.00
72380;SHT30;60354;47.798;12.472;2023-05-10T15:21:35;14.12;88.84
72380;SHT30;60354;47.798;12.472;2023-05-10T15:24:06;14.02;88.05
72380;SHT30;60354;47.798;12.472;2023-05-10T15:26:32;13.95;88.46
72380;SHT30;60354;47.798;12.472;2023-05-10T15:28:58;13.69;88.44
72380;SHT30;60354;47.798;12.472;2023-05-10T15:31:23;13.66;88.93
72380;SHT30;60354;47.798;12.472;2023-05-10T15:33:49;13.75;89.82
72380;SHT30;60354;47.798;12.472;2023-05-10T15:36:14;13.78;89.86
72380;SHT30;60354;47.798;12.472;2023-05-10T15:38:40;13.69;89.96
72380;SHT30;60354;47.798;12.472;2023-05-10T15:41:05;13.88;90.57
72380;SHT30;60354;47.798;12.472;2023-05-10T15:43:31;13.82;88.60